createdAt,value
2023-04-08T00:04:56.809Z,16.70
2023-04-08T00:10:02.163Z,16.71
2023-04-08T00:15:06.592Z,16.73
2023-04-08T00:20:10.974Z,16.53
2023-04-08T00:25:16.293Z,16.40
2023-04-08T00:30:19.996Z,16.22
2023-04-08T00:35:24.535Z,15.98
2023-04-08T00:40:30.809Z,15.82
2023-04-08T00:45:35.102Z,15.66
2023-04-08T00:50:38.705Z,15.60
2023-04-08T00:55:44.084Z,15.53
2023-04-08T01:00:54.568Z,15.50
2023-04-08T01:06:07.744Z,15.34
2023-04-08T01:11:14.704Z,15.20
2023-04-08T01:16:19.930Z,15.27
2023-04-08T01:21:26.347Z,15.26
2023-04-08T01:26:32.347Z,15.03
2023-04-08T01:31:39.433Z,15.03
2023-04-08T01:36:45.030Z,14.75
2023-04-08T01:41:51.316Z,14.68
2023-04-08T01:46:55.945Z,14.68
2023-04-08T01:52:01.496Z,14.43
2023-04-08T01:57:09.059Z,14.30
2023-04-08T02:02:13.728Z,14.31
2023-04-08T02:07:17.824Z,14.27
2023-04-08T02:12:23.300Z,14.38
2023-04-08T02:17:33.124Z,14.08
2023-04-08T02:22:44.280Z,13.96
2023-04-08T02:27:50.969Z,13.79
2023-04-08T02:32:57.336Z,13.67
2023-04-08T02:38:01.175Z,13.44
2023-04-08T02:43:06.495Z,13.18
2023-04-08T02:48:10.402Z,13.04
2023-04-08T02:53:14.029Z,13.06
2023-04-08T02:58:19.491Z,13.06
2023-04-08T03:03:23.280Z,12.89
2023-04-08T03:08:26.940Z,12.77
2023-04-08T03:13:32.929Z,12.87
2023-04-08T03:18:35.778Z,12.92
2023-04-08T03:23:40.073Z,12.88
2023-04-08T03:28:45.362Z,12.56
2023-04-08T03:33:49.101Z,12.24
2023-04-08T03:38:53.434Z,12.23
2023-04-08T03:43:59.212Z,12.23
2023-04-08T03:49:02.835Z,12.22
2023-04-08T03:54:06.450Z,12.24
2023-04-08T03:59:11.699Z,12.28
2023-04-08T04:04:15.542Z,12.21
2023-04-08T04:09:19.275Z,12.05
2023-04-08T04:14:24.617Z,11.95
2023-04-08T04:19:31.824Z,11.86
2023-04-08T04:24:35.514Z,11.71
2023-04-08T04:29:42.269Z,11.47
2023-04-08T04:34:45.911Z,11.14
2023-04-08T04:39:49.518Z,10.91
2023-04-08T04:44:54.799Z,10.83
2023-04-08T04:49:58.396Z,10.98
2023-04-08T04:55:02.034Z,11.08
2023-04-08T05:00:08.670Z,11.15
2023-04-08T05:05:12.389Z,11.14
2023-04-08T05:10:16.017Z,11.02
2023-04-08T05:15:21.569Z,10.90
2023-04-08T05:20:25.162Z,10.69
2023-04-08T05:25:28.830Z,10.75
2023-04-08T05:30:34.079Z,10.90
2023-04-08T05:35:37.848Z,10.91
2023-04-08T05:40:41.589Z,10.86
2023-04-08T05:45:46.904Z,10.85
2023-04-08T05:50:50.560Z,10.74
2023-04-08T05:55:54.137Z,10.66
2023-04-08T06:00:59.486Z,10.64
2023-04-08T06:06:03.164Z,10.59
2023-04-08T06:11:06.847Z,10.62
2023-04-08T06:16:19.602Z,10.55
2023-04-08T06:21:24.490Z,10.71
2023-04-08T06:26:28.090Z,10.74
2023-04-08T06:31:34.206Z,10.34
2023-04-08T06:36:37.117Z,10.43
2023-04-08T06:41:40.767Z,10.27
2023-04-08T06:46:46.077Z,10.22
2023-04-08T06:51:50.758Z,10.37
2023-04-08T06:56:54.397Z,10.30
2023-04-08T07:01:59.929Z,10.24
2023-04-08T07:07:03.631Z,10.15
2023-04-08T07:12:07.361Z,10.01
2023-04-08T07:17:12.616Z,10.03
2023-04-08T07:22:16.264Z,9.96
2023-04-08T07:27:19.882Z,9.88
2023-04-08T07:32:25.869Z,9.87
2023-04-08T07:37:29.569Z,9.93
2023-04-08T07:42:33.219Z,9.83
2023-04-08T07:47:39.516Z,9.82
2023-04-08T07:52:43.160Z,9.63
2023-04-08T07:57:46.793Z,9.61
2023-04-08T08:02:52.292Z,9.74
2023-04-08T08:07:56.020Z,9.53
2023-04-08T08:12:59.646Z,9.54
2023-04-08T08:18:05.106Z,9.50
2023-04-08T08:23:08.760Z,9.26
2023-04-08T08:28:12.360Z,9.45
2023-04-08T08:33:17.597Z,9.38
2023-04-08T08:38:21.294Z,9.41
2023-04-08T08:43:25.160Z,9.54
2023-04-08T08:48:32.040Z,9.44
2023-04-08T08:53:36.122Z,9.45
2023-04-08T08:58:39.831Z,9.52
2023-04-08T09:03:45.270Z,9.42
2023-04-08T09:08:50.248Z,9.46
2023-04-08T09:13:53.869Z,9.54
2023-04-08T09:19:09.963Z,9.57
2023-04-08T09:24:30.264Z,9.59
2023-04-08T09:29:35.232Z,9.62
2023-04-08T09:34:43.536Z,9.48
2023-04-08T09:39:47.171Z,9.55
2023-04-08T09:44:50.932Z,9.58
2023-04-08T09:49:59.294Z,9.50
2023-04-08T09:55:04.597Z,9.55
2023-04-08T10:00:13.848Z,9.63
2023-04-08T10:05:20.132Z,9.59
2023-04-08T10:10:23.124Z,9.61
2023-04-08T10:15:28.369Z,9.63
2023-04-08T10:20:47.031Z,9.62
2023-04-08T10:25:50.705Z,9.55
2023-04-08T10:30:54.933Z,9.52
2023-04-08T10:36:10.381Z,9.52
2023-04-08T10:41:14.495Z,9.58
2023-04-08T10:46:18.239Z,9.65
2023-04-08T10:51:23.893Z,9.67
2023-04-08T10:56:27.572Z,9.69
2023-04-08T11:01:41.256Z,9.62
2023-04-08T11:06:47.624Z,9.65
2023-04-08T11:11:51.219Z,9.58
2023-04-08T11:16:54.974Z,9.59
2023-04-08T11:22:00.434Z,9.65
2023-04-08T11:27:04.957Z,9.50
2023-04-08T11:32:09.035Z,9.44
2023-04-08T11:37:14.286Z,9.41
2023-04-08T11:42:28.710Z,9.34
2023-04-08T11:47:32.941Z,9.35
2023-04-08T11:52:45.728Z,9.25
2023-04-08T11:57:49.326Z,9.35
2023-04-08T12:02:53.250Z,9.39
2023-04-08T12:07:58.595Z,9.33
2023-04-08T12:13:02.210Z,9.34
2023-04-08T12:18:07.460Z,9.36
2023-04-08T12:23:12.689Z,9.40
2023-04-08T12:28:16.306Z,9.43
2023-04-08T12:33:19.891Z,9.45
2023-04-08T12:38:25.248Z,9.43
2023-04-08T12:43:28.903Z,9.30
2023-04-08T12:48:32.497Z,9.32
2023-04-08T12:53:37.775Z,9.38
2023-04-08T12:58:41.357Z,9.37
2023-04-08T13:03:46.977Z,9.38
2023-04-08T13:08:52.605Z,9.31
2023-04-08T13:13:56.389Z,9.25
2023-04-08T13:18:59.999Z,9.20
2023-04-08T13:24:05.704Z,9.16
2023-04-08T13:29:09.310Z,9.31
2023-04-08T13:34:13.662Z,9.30
2023-04-08T13:39:18.919Z,9.37
2023-04-08T13:44:22.529Z,9.39
2023-04-08T13:49:26.168Z,9.44
2023-04-08T13:54:31.452Z,9.40
2023-04-08T13:59:35.119Z,9.49
2023-04-08T14:04:38.734Z,9.57
2023-04-08T14:09:44.064Z,9.68
2023-04-08T14:14:47.869Z,9.66
2023-04-08T14:19:53.965Z,9.67
2023-04-08T14:24:59.298Z,9.71
2023-04-08T14:30:03.003Z,9.73
2023-04-08T14:35:08.780Z,9.70
2023-04-08T14:40:14.560Z,9.73
2023-04-08T14:45:18.522Z,9.67
2023-04-08T14:50:22.239Z,9.87
2023-04-08T14:55:27.514Z,10.05
2023-04-08T15:00:31.114Z,10.16
2023-04-08T15:05:36.693Z,10.20
2023-04-08T15:10:42.124Z,10.28
2023-04-08T15:15:45.840Z,10.43
2023-04-08T15:20:49.497Z,10.46
2023-04-08T15:25:54.803Z,10.61
2023-04-08T15:30:58.467Z,10.61
2023-04-08T15:36:02.202Z,10.71
2023-04-08T15:41:07.524Z,10.85
2023-04-08T15:46:11.153Z,10.85
2023-04-08T15:51:14.834Z,11.10
2023-04-08T15:56:20.344Z,11.32
2023-04-08T16:01:24.014Z,11.58
2023-04-08T16:06:27.717Z,11.87
2023-04-08T16:11:34.893Z,12.08
2023-04-08T16:16:38.822Z,12.31
2023-04-08T16:21:42.574Z,12.45
2023-04-08T16:26:48.744Z,12.76
2023-04-08T16:31:55.173Z,13.03
2023-04-08T16:36:58.919Z,13.22
2023-04-08T16:42:04.211Z,13.72
2023-04-08T16:47:07.833Z,14.25
2023-04-08T16:52:11.397Z,14.42
2023-04-08T16:57:17.615Z,14.58
2023-04-08T17:02:21.305Z,14.76
2023-04-08T17:07:25.055Z,14.92
2023-04-08T17:12:33.297Z,15.26
2023-04-08T17:17:36.983Z,15.26
2023-04-08T17:22:40.636Z,15.39
2023-04-08T17:27:45.881Z,15.31
2023-04-08T17:32:49.942Z,15.15
2023-04-08T17:37:53.563Z,15.30
2023-04-08T17:42:59.823Z,15.17
2023-04-08T17:48:03.442Z,15.11
2023-04-08T17:53:07.077Z,15.36
2023-04-08T17:58:12.376Z,15.44
2023-04-08T18:03:16.296Z,15.50
2023-04-08T18:08:20.079Z,15.40
2023-04-08T18:13:25.422Z,15.45
2023-04-08T18:18:29.032Z,15.67
2023-04-08T18:23:32.638Z,15.62
2023-04-08T18:28:37.882Z,15.73
2023-04-08T18:33:41.465Z,15.82
2023-04-08T18:38:45.681Z,15.86
2023-04-08T18:43:52.884Z,15.81
2023-04-08T18:48:56.822Z,15.91
2023-04-08T18:54:00.444Z,15.97
2023-04-08T18:59:05.751Z,16.31
2023-04-08T19:04:11.024Z,16.32
2023-04-08T19:09:14.631Z,16.62
2023-04-08T19:14:20.059Z,16.79
2023-04-08T19:19:23.699Z,16.88
2023-04-08T19:24:27.399Z,16.90
2023-04-08T19:29:34.643Z,16.87
2023-04-08T19:34:38.880Z,17.09
2023-04-08T19:39:42.490Z,17.32
2023-04-08T19:44:47.773Z,17.47
2023-04-08T19:49:51.401Z,17.76
2023-04-08T19:54:55.205Z,17.98
2023-04-08T20:00:00.510Z,18.10
2023-04-08T20:05:04.262Z,18.31
2023-04-08T20:10:09.106Z,18.45
2023-04-08T20:15:24.205Z,18.80
2023-04-08T20:20:29.567Z,19.13
2023-04-08T20:25:33.709Z,19.23
2023-04-08T20:30:39.071Z,19.09
2023-04-08T20:35:42.716Z,19.38
2023-04-08T20:40:46.374Z,19.40
2023-04-08T20:45:51.633Z,19.32
2023-04-08T20:50:55.283Z,19.19
2023-04-08T20:55:58.890Z,19.58
2023-04-08T21:01:04.228Z,19.63
2023-04-08T21:06:08.149Z,19.80
2023-04-08T21:11:11.892Z,19.53
2023-04-08T21:16:17.316Z,19.85
2023-04-08T21:21:20.277Z,19.92
2023-04-08T21:26:23.930Z,20.04
2023-04-08T21:31:32.226Z,20.08
2023-04-08T21:36:35.845Z,20.54
2023-04-08T21:41:39.450Z,20.56
2023-04-08T21:46:44.745Z,20.20
2023-04-08T21:51:47.712Z,19.86
2023-04-08T21:56:51.318Z,19.93
2023-04-08T22:01:56.628Z,19.62
2023-04-08T22:23:57.564Z,18.60
2023-04-08T22:29:01.240Z,18.53
2023-04-08T22:34:04.959Z,18.75
2023-04-08T22:39:10.278Z,18.97
2023-04-08T22:44:13.933Z,18.78
2023-04-08T22:49:17.651Z,18.98
2023-04-08T22:54:23.890Z,18.87
2023-04-08T22:59:27.528Z,18.84
2023-04-08T23:04:31.217Z,18.92
2023-04-08T23:09:36.545Z,18.81
2023-04-08T23:14:40.258Z,18.65
2023-04-08T23:19:43.829Z,18.90
2023-04-08T23:24:50.244Z,19.06
2023-04-08T23:29:53.889Z,19.02
2023-04-08T23:34:57.543Z,18.95
2023-04-08T23:40:02.826Z,18.86
2023-04-08T23:45:07.487Z,18.66
2023-04-08T23:50:11.484Z,18.63
2023-04-08T23:55:19.046Z,18.76
